Città:
 IT 
 EN 
 FR 
 DE 
 ES 

Dati meteo attuali Milano

Datameteo.com - Informazione e servizi avanzati per la meteorologia,la nautica e la protezione civile
Milano / Linate, Italy
Alba: 7:15 AM UTC1
Tramonto: 5:56 PM UTC1
 Lat: 45.42N, Lon: 9.27E
ICAO Used: LIML
Condizioni Meteo Attuali Aggiornate: 22.02.2024 alle 00:20 UTC
Molto Nuvoloso
Molto Nuvoloso
Molto Nuvoloso
Temp: 10°C
Umidita': 76%
Direz/Vel. Vento: variabile 1 / KT raffiche
Pressione: 1018 hPa
Punto di rugiada: 6°C
Temperatura percepita: 9°C
Visibilitą: 6000 m. (buona)
Temperatura percepita in
presenza di vento (Wind Chill)
:
N/D
T. max (ultime 24 ore): 10°C
T. min (ultime 24 ore): 10°C


METAR ORIGINALE
LIML 220020Z VRB01KT 6000 BKN045 10/06 Q1018 NOSIG



[ Indietro ]


Elaborazione dati by Datameteo.com - Lrc srl Copyright ©, All rights reserved.
Visualizza la versione web
©2010 Datameteo.com
weather mobile,mobile weather,meteo mobile,mobile meteo,meteo sul telefonino datameteo.com